Twisp, WA

7:15 PM PST on December 27, 2014 (GMT -0800)
Omak | Change Station
CLOSE
Current Station
Airport
Location: Omak,
Elevation: 1302 ft
Nearby Weather Stations
Active Advisory: Winter Weather Advisory Active Notice: Public Information Statement

Elev 1302 ft 48.46 °N, 119.52 °W | Updated 22 minutes ago

Fog
Fog
31 °F
Feels Like 25 °F
N
6
Wind Variable Wind from South

Today
High -- | Low -- °F
--% Chance of Precip.
Yesterday
High -- | Low -- °F
Precip. -- in
7:54 AM 4:10 PM
Waxing Crescent, 43% visible
Pressure 29.97 in
Visibility 10.0 miles
Clouds Overcast 1400 ft
Windchill 25 °F
Dew Point 28 °F
Humidity 89%
Rainfall 0.00 in
Snow Depth Not available.
UV 0 out of 12
Pollen .50 out of 12
Air Quality Not available.
Flu Activity Not available.
METAR KOMK 280253Z AUTO 18005KT 10SM OVC014 M01/M02 A2992 RMK AO2 SLP148 60000 T10061022 55004

More Conditions Fewer Conditions

Pressure 29.97 in
Visibility 10.0 miles
Clouds Overcast 1400 ft
Windchill 25 °F
Dew Point 28 °F
Humidity 89%
Rainfall 0.00 in
Snow Depth Not available.
UV 0 out of 12
Pollen .50 out of 12
Air Quality Not available.
Flu Activity Not available.
METAR KOMK 280253Z AUTO 18005KT 10SM OVC014 M01/M02 A2992 RMK AO2 SLP148 60000 T10061022 55004

More Conditions Fewer Conditions

10-Day Weather Forecast

Almanac

Astronomy

Dec. 27, 2014 Rise Set
Actual Time
Civil Twilight
Nautical Twilight
Astronomical Twilight
Moon
Length of Visible Light
Length of Day
Tomorrow will be .
, % of the Moon is Illuminated

Today's Extremes

State Highs State Lows

Community

WunderPhotos

Upload Photos

1,781,171 photos uploaded!

WunderBlogs® & News

Nearby

Air Quality

  Air Quality AQ Index Pollutant
Not available.

Snow Depth

Station Depth Elevation

Earthquake Activity

City Distance Mag. Time & Date
Minimum magnitude displayed is 2.5.

Coastal Water Temperatures

Place Temperature

Nearby Weather Stations